Saturday, 11 July 2009

More weather thoughts

Off to Flying Legends at Duxford tomorrow (I hope). My slot is for 09:48 local, so will need to get airborne at about 09:00 to be there on time. The Stansted TAF is

TAF EGSS 111700Z 1118/1224 19010KT 9999 BKN020 BECMG 1118/1121 -RA BKN012 TEMPO 1120/1208 8000 RA BKN008 PROB40 TEMPO 1121/1206 3000 +RA RADZ BKN004 PROB30 TEMPO 1201/1207 19015G25KT BECMG 1207/1210 25010KT NSW SCT030 PROB30 TEMPO 1214/1219 26015G25KT 7000 SHRA=

If the red TEMPO is running late it'll be interesting, but the blue BECMG looks just the job. Let's hope that the front shown here is punctual and clears through in time.

No comments: